Time;durP1;ratioP1;P1;durP2;ratioP2;P2;SDS_P1;SDS_P2;PMS_P1;PMS_P2;Temp;Humidity;BMP_temperature;BMP_pressure;BME280_temperature;BME280_humidity;BME280_pressure;Samples;Min_cycle;Max_cycle;Signal;HPM_P1;HPM_P2
2022/11/06 00:00:37;;;;;;;6.93;4.33;;;;;;;;;;4995953;28;20201;-75
2022/11/06 00:03:05;;;;;;;6.03;4.60;;;;;;;;;;4995179;28;20296;-76
2022/11/06 00:08:27;;;;;;;5.93;4.40;;;;;;;;;;4976671;28;20194;-75
2022/11/06 00:10:56;;;;;;;7.17;4.53;;;;;;;;;;4988426;28;20228;-75
2022/11/06 00:13:26;;;;;;;6.63;4.20;;;;;;;;;;4995702;28;20298;-75
2022/11/06 00:15:54;;;;;;;5.77;4.23;;;;;;;;;;4995200;28;20209;-75
2022/11/06 00:18:26;;;;;;;5.63;4.00;;;;;;;;;;4995705;28;20304;-75
2022/11/06 00:20:54;;;;;;;5.40;4.07;;;;;;;;;;4995223;28;20690;-75
2022/11/06 00:23:22;;;;;;;5.33;4.03;;;;;;;;;;4995677;28;20232;-75
2022/11/06 00:25:55;;;;;;;6.60;4.30;;;;;;;;;;4991841;28;20245;-76
2022/11/06 00:28:23;;;;;;;5.37;4.43;;;;;;;;;;4976236;28;20675;-76
2022/11/06 00:31:00;;;;;;;6.40;3.70;;;;;;;;;;4976188;28;20594;-75
2022/11/06 00:33:29;;;;;;;7.80;4.40;;;;;;;;;;4976360;28;20281;-76
2022/11/06 00:35:57;;;;;;;5.67;4.00;;;;;;;;;;4987097;28;20234;-75
2022/11/06 00:38:26;;;;;;;8.60;5.40;;;;;;;;;;4994141;28;20205;-75
2022/11/06 00:40:55;;;;;;;10.83;6.50;;;;;;;;;;4995027;28;20256;-75
2022/11/06 00:43:23;;;;;;;15.90;10.40;;;;;;;;;;4994584;28;20205;-75
2022/11/06 00:45:51;;;;;;;9.00;6.27;;;;;;;;;;4994998;28;20228;-75
2022/11/06 00:48:21;;;;;;;8.07;5.77;;;;;;;;;;4995112;28;20251;-75
2022/11/06 00:50:50;;;;;;;8.10;4.73;;;;;;;;;;4995138;28;20324;-76
2022/11/06 00:53:18;;;;;;;6.40;3.83;;;;;;;;;;4994866;28;20304;-75
2022/11/06 00:55:47;;;;;;;7.70;4.30;;;;;;;;;;4994554;28;20243;-75
2022/11/06 00:58:15;;;;;;;7.57;4.40;;;;;;;;;;4994890;28;20252;-75
2022/11/06 01:00:43;;;;;;;6.17;4.00;;;;;;;;;;4994840;28;20240;-75
2022/11/06 01:03:12;;;;;;;4.97;3.57;;;;;;;;;;4994937;28;20304;-75
2022/11/06 01:05:42;;;;;;;5.53;3.90;;;;;;;;;;4988421;28;20205;-76
2022/11/06 01:08:10;;;;;;;5.73;3.90;;;;;;;;;;4994713;28;20236;-75
2022/11/06 01:10:39;;;;;;;7.00;4.00;;;;;;;;;;4994696;28;20646;-76
2022/11/06 01:13:07;;;;;;;11.90;4.20;;;;;;;;;;4994950;28;20256;-75
2022/11/06 01:15:37;;;;;;;5.97;3.97;;;;;;;;;;4994018;28;20236;-76
2022/11/06 01:18:05;;;;;;;9.03;4.20;;;;;;;;;;4993862;28;20205;-75
2022/11/06 01:20:33;;;;;;;7.67;4.30;;;;;;;;;;4986882;28;20236;-75
2022/11/06 01:23:03;;;;;;;6.27;3.80;;;;;;;;;;4975378;28;20245;-75
2022/11/06 01:25:32;;;;;;;8.57;3.73;;;;;;;;;;4974740;28;20217;-75
2022/11/06 01:28:00;;;;;;;5.33;3.83;;;;;;;;;;4975347;28;20624;-75
2022/11/06 01:30:29;;;;;;;5.77;3.90;;;;;;;;;;4974785;28;20265;-75
2022/11/06 01:32:57;;;;;;;4.93;3.80;;;;;;;;;;4975360;28;20678;-75
2022/11/06 01:35:26;;;;;;;4.90;4.03;;;;;;;;;;4982466;28;20660;-75
2022/11/06 01:37:54;;;;;;;7.10;3.80;;;;;;;;;;4994368;28;20252;-75
2022/11/06 01:40:24;;;;;;;5.77;4.13;;;;;;;;;;4993940;28;20288;-75
2022/11/06 01:42:52;;;;;;;6.17;4.10;;;;;;;;;;4994098;28;20308;-75
2022/11/06 01:45:24;;;;;;;5.20;3.80;;;;;;;;;;4993996;28;20738;-75
2022/11/06 01:47:53;;;;;;;4.63;3.80;;;;;;;;;;4994353;28;20232;-75
2022/11/06 01:50:22;;;;;;;7.17;4.20;;;;;;;;;;4992004;28;20221;-75
2022/11/06 01:52:51;;;;;;;5.90;3.80;;;;;;;;;;4975333;28;20292;-75
2022/11/06 01:55:23;;;;;;;6.13;4.47;;;;;;;;;;4991923;28;20225;-75
2022/11/06 01:57:55;;;;;;;6.20;3.77;;;;;;;;;;4994345;28;20693;-75
2022/11/06 02:00:25;;;;;;;7.43;4.03;;;;;;;;;;4975042;28;20631;-75
2022/11/06 02:02:53;;;;;;;7.70;3.63;;;;;;;;;;4974525;28;20265;-75
2022/11/06 02:05:22;;;;;;;7.50;4.37;;;;;;;;;;4985150;28;20201;-75
2022/11/06 02:07:50;;;;;;;7.43;3.90;;;;;;;;;;4983264;28;20223;-75
2022/11/06 02:10:19;;;;;;;5.43;3.90;;;;;;;;;;4993110;28;20328;-76
2022/11/06 02:12:55;;;;;;;6.43;4.27;;;;;;;;;;4985469;28;20279;-75
2022/11/06 02:15:28;;;;;;;4.63;4.03;;;;;;;;;;4993906;28;20205;-75
2022/11/06 02:18:14;;;;;;;7.73;4.67;;;;;;;;;;4994220;28;20229;-75
2022/11/06 02:20:47;;;;;;;4.80;4.00;;;;;;;;;;4994131;28;20197;-74
2022/11/06 02:23:26;;;;;;;6.43;4.03;;;;;;;;;;4994083;28;20242;-75
2022/11/06 02:26:00;;;;;;;6.83;4.30;;;;;;;;;;4993282;28;20620;-75
2022/11/06 02:28:33;;;;;;;7.10;3.97;;;;;;;;;;4991730;28;20646;-76
2022/11/06 02:31:04;;;;;;;9.17;4.57;;;;;;;;;;4993994;28;20261;-75
2022/11/06 02:33:34;;;;;;;7.30;3.90;;;;;;;;;;4993681;28;20190;-75
2022/11/06 02:36:06;;;;;;;4.93;4.00;;;;;;;;;;4993188;28;20197;-75
2022/11/06 02:38:36;;;;;;;5.67;4.30;;;;;;;;;;4976361;28;20253;-75
2022/11/06 02:41:07;;;;;;;5.00;4.00;;;;;;;;;;4974590;28;20317;-75
2022/11/06 02:43:39;;;;;;;6.73;3.80;;;;;;;;;;4989079;28;20271;-75
2022/11/06 02:46:10;;;;;;;6.60;4.20;;;;;;;;;;4991636;28;20229;-75
2022/11/06 02:48:46;;;;;;;5.87;4.57;;;;;;;;;;4993344;28;20288;-75
2022/11/06 02:51:16;;;;;;;6.57;4.07;;;;;;;;;;4993360;28;20271;-75
2022/11/06 02:53:46;;;;;;;5.37;4.43;;;;;;;;;;4993785;28;20267;-76
2022/11/06 02:56:16;;;;;;;7.20;3.93;;;;;;;;;;4993628;28;20272;-75
2022/11/06 02:58:48;;;;;;;4.43;4.03;;;;;;;;;;4992391;28;20217;-76
2022/11/06 03:01:19;;;;;;;5.90;4.27;;;;;;;;;;4974965;28;20281;-76
2022/11/06 03:03:51;;;;;;;7.63;4.50;;;;;;;;;;4980936;28;20305;-76
2022/11/06 03:06:24;;;;;;;5.17;3.97;;;;;;;;;;4993492;28;20292;-77
2022/11/06 03:08:55;;;;;;;6.27;4.13;;;;;;;;;;4979597;28;20245;-75
2022/11/06 03:11:25;;;;;;;6.27;4.27;;;;;;;;;;4975770;28;20229;-77
2022/11/06 03:13:57;;;;;;;6.63;3.90;;;;;;;;;;4976224;28;20260;-76
2022/11/06 03:16:31;;;;;;;6.97;4.40;;;;;;;;;;4986112;28;20288;-76
2022/11/06 03:19:03;;;;;;;6.87;4.13;;;;;;;;;;4995657;28;20263;-76
2022/11/06 03:21:34;;;;;;;5.20;3.80;;;;;;;;;;4997039;28;20253;-76
2022/11/06 03:24:05;;;;;;;8.07;4.07;;;;;;;;;;4996855;28;20666;-76
2022/11/06 03:26:36;;;;;;;6.63;4.03;;;;;;;;;;4996989;28;20682;-76
2022/11/06 03:29:11;;;;;;;4.73;4.00;;;;;;;;;;4996777;28;20303;-76
2022/11/06 03:31:42;;;;;;;5.03;3.60;;;;;;;;;;4996452;28;20264;-76
2022/11/06 03:34:15;;;;;;;6.60;3.77;;;;;;;;;;4984431;28;20217;-76
2022/11/06 03:36:44;;;;;;;5.47;3.40;;;;;;;;;;4996312;28;20296;-76
2022/11/06 03:39:15;;;;;;;7.77;3.90;;;;;;;;;;4996914;28;20244;-75
2022/11/06 03:41:47;;;;;;;6.17;3.83;;;;;;;;;;4997024;28;20580;-76
2022/11/06 03:44:18;;;;;;;4.57;3.90;;;;;;;;;;4996859;28;20198;-76
2022/11/06 03:46:48;;;;;;;8.00;3.97;;;;;;;;;;4995769;28;20289;-75
2022/11/06 03:49:19;;;;;;;6.30;3.90;;;;;;;;;;4996696;28;20605;-75
2022/11/06 03:51:50;;;;;;;5.73;3.90;;;;;;;;;;4996303;28;20679;-76
2022/11/06 03:54:22;;;;;;;10.37;4.30;;;;;;;;;;4996336;28;20237;-76
2022/11/06 03:56:52;;;;;;;5.17;3.80;;;;;;;;;;4995771;28;20209;-76
2022/11/06 03:59:24;;;;;;;6.33;4.17;;;;;;;;;;4996426;28;20213;-76
2022/11/06 04:01:54;;;;;;;5.00;3.93;;;;;;;;;;4996029;28;20221;-76
2022/11/06 04:04:25;;;;;;;6.60;4.07;;;;;;;;;;4996250;28;20670;-76
2022/11/06 04:06:56;;;;;;;8.53;4.30;;;;;;;;;;4995656;28;20240;-75
2022/11/06 04:15:03;;;;;;;5.27;4.23;;;;;;;;;;4995464;28;20291;-76
2022/11/06 04:17:32;;;;;;;7.23;5.20;;;;;;;;;;4990943;28;20228;-76
2022/11/06 04:20:02;;;;;;;7.13;4.50;;;;;;;;;;4995890;28;20409;-75
2022/11/06 04:22:41;;;;;;;7.30;4.60;;;;;;;;;;4996082;28;20295;-75
2022/11/06 04:28:08;;;;;;;6.23;4.33;;;;;;;;;;4976214;28;20296;-76
2022/11/06 04:30:41;;;;;;;5.37;4.23;;;;;;;;;;4975810;28;20197;-76
2022/11/06 04:33:12;;;;;;;5.33;4.07;;;;;;;;;;4976391;28;20286;-75
2022/11/06 04:35:48;;;;;;;5.60;4.33;;;;;;;;;;4977644;28;20695;-76
2022/11/06 04:38:22;;;;;;;5.87;4.30;;;;;;;;;;4995842;28;20224;-75
2022/11/06 04:40:53;;;;;;;7.20;4.50;;;;;;;;;;4995512;28;20823;-75
2022/11/06 04:43:23;;;;;;;5.43;4.43;;;;;;;;;;4995348;28;20632;-75
2022/11/06 04:45:55;;;;;;;6.23;4.13;;;;;;;;;;4994974;28;20189;-75
2022/11/06 04:48:25;;;;;;;6.57;4.40;;;;;;;;;;4995522;28;20694;-76
2022/11/06 04:50:55;;;;;;;9.33;4.40;;;;;;;;;;4995270;28;20243;-75
2022/11/06 04:53:24;;;;;;;7.20;4.13;;;;;;;;;;4995109;28;20303;-75
2022/11/06 04:55:56;;;;;;;6.23;4.10;;;;;;;;;;4992281;28;20213;-76
2022/11/06 04:58:24;;;;;;;6.17;3.90;;;;;;;;;;4995117;28;20656;-75
2022/11/06 05:00:54;;;;;;;7.17;4.27;;;;;;;;;;4994521;28;20205;-75
2022/11/06 05:03:23;;;;;;;5.70;4.10;;;;;;;;;;4994841;28;20292;-75
2022/11/06 05:05:51;;;;;;;7.00;4.40;;;;;;;;;;4994527;28;20555;-76
2022/11/06 05:08:21;;;;;;;5.37;3.90;;;;;;;;;;4994696;28;20704;-76
2022/11/06 05:10:49;;;;;;;7.23;3.97;;;;;;;;;;4975640;28;20206;-75
2022/11/06 05:13:18;;;;;;;5.50;4.07;;;;;;;;;;4975457;28;20317;-76
2022/11/06 05:15:46;;;;;;;7.77;4.00;;;;;;;;;;4975416;28;20292;-75
2022/11/06 05:18:16;;;;;;;5.63;3.70;;;;;;;;;;4975673;28;20241;-75
2022/11/06 05:20:44;;;;;;;5.93;3.97;;;;;;;;;;4975075;28;20301;-75
2022/11/06 05:23:12;;;;;;;6.10;3.50;;;;;;;;;;4978684;28;20244;-75
2022/11/06 05:25:40;;;;;;;6.23;3.50;;;;;;;;;;4992698;28;20240;-75
2022/11/06 05:28:09;;;;;;;3.77;3.37;;;;;;;;;;4994164;28;20248;-76
2022/11/06 05:30:38;;;;;;;5.07;3.90;;;;;;;;;;4994504;28;20208;-75
2022/11/06 05:33:07;;;;;;;5.17;3.50;;;;;;;;;;4994357;28;20263;-76
2022/11/06 05:35:36;;;;;;;5.20;3.20;;;;;;;;;;4994255;28;20239;-75
2022/11/06 05:38:05;;;;;;;4.70;2.97;;;;;;;;;;4994340;28;20710;-75
2022/11/06 05:40:33;;;;;;;3.30;3.00;;;;;;;;;;4993898;28;20205;-75
2022/11/06 05:43:02;;;;;;;7.03;3.17;;;;;;;;;;4994495;28;20693;-75
2022/11/06 05:45:30;;;;;;;6.70;3.27;;;;;;;;;;4993616;28;20259;-75
2022/11/06 05:47:58;;;;;;;4.17;3.13;;;;;;;;;;4994097;28;20705;-76
2022/11/06 05:50:27;;;;;;;5.17;3.17;;;;;;;;;;4994701;28;20233;-75
2022/11/06 05:52:57;;;;;;;3.73;3.20;;;;;;;;;;4993923;28;20318;-76
2022/11/06 05:55:25;;;;;;;6.60;3.27;;;;;;;;;;4993506;28;20312;-75
2022/11/06 05:57:54;;;;;;;5.83;3.47;;;;;;;;;;4974857;28;20297;-76
2022/11/06 06:00:22;;;;;;;4.90;2.90;;;;;;;;;;4975064;28;20210;-75
2022/11/06 06:02:51;;;;;;;4.70;3.00;;;;;;;;;;4974863;28;20312;-75
2022/11/06 06:05:19;;;;;;;4.63;3.13;;;;;;;;;;4974517;28;20293;-75
2022/11/06 06:07:48;;;;;;;3.97;2.93;;;;;;;;;;4977532;28;20678;-75
2022/11/06 06:10:18;;;;;;;6.83;3.33;;;;;;;;;;4974842;28;20643;-76
2022/11/06 06:12:46;;;;;;;5.93;3.20;;;;;;;;;;4974793;28;20368;-75
2022/11/06 06:15:16;;;;;;;5.37;3.20;;;;;;;;;;4974721;28;20241;-75
2022/11/06 06:17:45;;;;;;;6.63;2.93;;;;;;;;;;4974805;28;20202;-76
2022/11/06 06:20:13;;;;;;;5.37;3.27;;;;;;;;;;4992040;28;20205;-76
2022/11/06 06:22:42;;;;;;;5.13;2.80;;;;;;;;;;4993746;28;20256;-75
2022/11/06 06:25:10;;;;;;;5.63;3.17;;;;;;;;;;4994108;28;20244;-76
2022/11/06 06:27:51;;;;;;;5.60;2.87;;;;;;;;;;4992166;28;20215;-76
2022/11/06 06:30:19;;;;;;;4.40;2.97;;;;;;;;;;4993745;28;20711;-76
2022/11/06 06:32:48;;;;;;;5.07;3.20;;;;;;;;;;4994025;28;20229;-77
2022/11/06 06:35:17;;;;;;;4.97;3.00;;;;;;;;;;4978496;28;20210;-77
2022/11/06 06:37:51;;;;;;;5.27;3.07;;;;;;;;;;4984450;28;20259;-76
2022/11/06 06:40:19;;;;;;;3.40;2.90;;;;;;;;;;4976710;28;20206;-76
2022/11/06 06:42:48;;;;;;;4.43;2.90;;;;;;;;;;4978998;28;20221;-77
2022/11/06 06:45:18;;;;;;;5.23;2.87;;;;;;;;;;4978531;28;20237;-77
2022/11/06 06:47:46;;;;;;;3.67;2.80;;;;;;;;;;4979011;28;20260;-77
2022/11/06 06:50:15;;;;;;;4.93;3.43;;;;;;;;;;4978475;28;20218;-77
2022/11/06 06:52:43;;;;;;;4.57;3.07;;;;;;;;;;4992947;28;20271;-77
2022/11/06 06:55:12;;;;;;;4.30;3.17;;;;;;;;;;4980242;28;20213;-77
2022/11/06 06:57:40;;;;;;;6.17;3.27;;;;;;;;;;4982467;28;20297;-77
2022/11/06 07:00:09;;;;;;;6.70;3.80;;;;;;;;;;4983627;28;20209;-76
2022/11/06 07:02:39;;;;;;;6.43;3.27;;;;;;;;;;4998184;28;20275;-76
2022/11/06 07:05:08;;;;;;;3.87;3.07;;;;;;;;;;4996102;28;20295;-77
2022/11/06 07:07:36;;;;;;;6.07;3.40;;;;;;;;;;4997693;28;20210;-77
2022/11/06 07:10:05;;;;;;;5.27;3.00;;;;;;;;;;4997542;28;20201;-77
2022/11/06 07:12:33;;;;;;;4.77;3.13;;;;;;;;;;4994017;28;20320;-76
2022/11/06 07:15:02;;;;;;;4.03;3.50;;;;;;;;;;4980206;28;20202;-77
2022/11/06 07:17:30;;;;;;;4.90;3.17;;;;;;;;;;4990038;28;20236;-77
2022/11/06 07:20:00;;;;;;;4.70;3.50;;;;;;;;;;4996821;28;20244;-77
2022/11/06 07:22:30;;;;;;;6.93;3.60;;;;;;;;;;4997655;28;20259;-76
2022/11/06 07:25:05;;;;;;;7.00;3.83;;;;;;;;;;4997692;28;20295;-77
2022/11/06 07:27:33;;;;;;;10.03;3.70;;;;;;;;;;4991016;28;20565;-76
2022/11/06 07:30:02;;;;;;;9.80;4.13;;;;;;;;;;4994184;28;20236;-77
2022/11/06 07:32:31;;;;;;;6.83;3.93;;;;;;;;;;4989655;28;20245;-77
2022/11/06 07:35:00;;;;;;;5.53;3.53;;;;;;;;;;4988663;28;20294;-76
2022/11/06 07:37:29;;;;;;;6.03;3.80;;;;;;;;;;4995920;28;20293;-76
2022/11/06 07:39:57;;;;;;;6.53;4.37;;;;;;;;;;4996236;28;20208;-77
2022/11/06 07:42:26;;;;;;;6.63;3.53;;;;;;;;;;4996151;28;20311;-77
2022/11/06 07:44:54;;;;;;;5.43;3.63;;;;;;;;;;4994925;28;20252;-77
2022/11/06 07:47:23;;;;;;;9.50;4.27;;;;;;;;;;4976834;28;20252;-77
2022/11/06 07:49:51;;;;;;;7.53;4.37;;;;;;;;;;4989462;28;20240;-77
2022/11/06 07:52:21;;;;;;;6.43;3.63;;;;;;;;;;4996085;28;20284;-76
2022/11/06 07:54:50;;;;;;;7.57;3.47;;;;;;;;;;4985038;28;20275;-77
2022/11/06 07:57:18;;;;;;;6.83;3.77;;;;;;;;;;4996569;28;20559;-76
2022/11/06 07:59:47;;;;;;;6.20;3.60;;;;;;;;;;4994259;28;20284;-77
2022/11/06 08:02:16;;;;;;;6.23;4.10;;;;;;;;;;4990429;28;20313;-78
2022/11/06 08:04:45;;;;;;;4.67;3.53;;;;;;;;;;4991405;28;20213;-76
2022/11/06 08:07:13;;;;;;;7.17;3.60;;;;;;;;;;4982143;28;20626;-77
2022/11/06 08:09:43;;;;;;;5.70;4.00;;;;;;;;;;4996488;28;20252;-76
2022/11/06 08:12:13;;;;;;;5.30;4.10;;;;;;;;;;4996398;28;20652;-76
2022/11/06 08:14:41;;;;;;;5.73;3.90;;;;;;;;;;4992117;28;20220;-76
2022/11/06 08:17:10;;;;;;;5.17;3.83;;;;;;;;;;4977211;28;20233;-77
2022/11/06 08:19:38;;;;;;;4.90;3.40;;;;;;;;;;4995886;28;20712;-76
2022/11/06 08:22:07;;;;;;;5.63;3.43;;;;;;;;;;4995730;28;20248;-77
2022/11/06 08:24:36;;;;;;;5.53;3.47;;;;;;;;;;4992095;28;20241;-77
2022/11/06 08:27:06;;;;;;;4.40;3.33;;;;;;;;;;4983060;28;20228;-77
2022/11/06 08:29:35;;;;;;;5.37;3.20;;;;;;;;;;4995461;28;20201;-76
2022/11/06 08:32:09;;;;;;;4.63;3.40;;;;;;;;;;4995234;28;20233;-76
2022/11/06 08:34:37;;;;;;;4.00;2.97;;;;;;;;;;4995058;28;20222;-76
2022/11/06 08:37:05;;;;;;;5.93;3.33;;;;;;;;;;4989783;28;20233;-76
2022/11/06 08:39:34;;;;;;;7.60;3.37;;;;;;;;;;4979510;28;20263;-76
2022/11/06 08:42:04;;;;;;;6.57;3.17;;;;;;;;;;4994929;28;20315;-77
2022/11/06 08:44:33;;;;;;;5.07;3.10;;;;;;;;;;4987062;28;20193;-76
2022/11/06 08:47:02;;;;;;;6.63;3.40;;;;;;;;;;4993320;28;20305;-76
2022/11/06 08:49:31;;;;;;;4.40;3.43;;;;;;;;;;4995263;28;20253;-78
2022/11/06 08:51:59;;;;;;;4.67;3.03;;;;;;;;;;4994590;28;20229;-77
2022/11/06 08:54:43;;;;;;;3.47;3.07;;;;;;;;;;4994675;28;20320;-78
2022/11/06 08:57:11;;;;;;;5.80;3.30;;;;;;;;;;4994201;28;20677;-78
2022/11/06 08:59:41;;;;;;;4.20;3.10;;;;;;;;;;4994956;28;20236;-78
2022/11/06 09:02:12;;;;;;;5.80;3.40;;;;;;;;;;4994306;28;20320;-79
2022/11/06 09:04:41;;;;;;;5.00;3.00;;;;;;;;;;4993966;28;20629;-76
2022/11/06 09:07:10;;;;;;;4.67;3.07;;;;;;;;;;4994550;28;20287;-79
2022/11/06 09:09:38;;;;;;;5.03;3.37;;;;;;;;;;4993897;28;20255;-78
2022/11/06 09:12:07;;;;;;;4.43;3.37;;;;;;;;;;4994259;28;20256;-78
2022/11/06 09:14:36;;;;;;;3.33;2.17;;;;;;;;;;4993899;28;20217;-77
2022/11/06 09:17:06;;;;;;;3.03;2.30;;;;;;;;;;4994400;28;20244;-77
2022/11/06 09:19:34;;;;;;;3.87;1.93;;;;;;;;;;4993983;28;20244;-79
2022/11/06 09:22:03;;;;;;;4.77;2.20;;;;;;;;;;4994518;28;20229;-77
2022/11/06 09:24:31;;;;;;;5.43;2.20;;;;;;;;;;4993985;28;20244;-78
2022/11/06 09:27:20;;;;;;;2.90;2.13;;;;;;;;;;4993997;28;20213;-78
2022/11/06 09:29:48;;;;;;;4.40;2.03;;;;;;;;;;4993998;28;20275;-77
2022/11/06 09:32:18;;;;;;;3.87;2.20;;;;;;;;;;4993955;28;20706;-78
2022/11/06 09:34:46;;;;;;;3.40;2.10;;;;;;;;;;4993539;28;20261;-78
2022/11/06 09:37:15;;;;;;;4.07;1.90;;;;;;;;;;4994043;28;20243;-79
2022/11/06 09:39:44;;;;;;;4.27;1.90;;;;;;;;;;4994045;28;20712;-78
2022/11/06 09:42:16;;;;;;;2.30;2.10;;;;;;;;;;4993791;28;20225;-78
2022/11/06 09:44:51;;;;;;;2.57;2.00;;;;;;;;;;4993564;28;20189;-78
2022/11/06 09:47:23;;;;;;;6.10;2.00;;;;;;;;;;4993921;28;20224;-79
2022/11/06 09:49:53;;;;;;;4.87;2.10;;;;;;;;;;4993428;28;20240;-79
2022/11/06 09:52:28;;;;;;;3.90;2.23;;;;;;;;;;4993248;28;20316;-78
2022/11/06 09:55:00;;;;;;;4.00;2.07;;;;;;;;;;4993072;28;20215;-78
2022/11/06 09:57:33;;;;;;;4.47;2.63;;;;;;;;;;4993630;28;20224;-78
2022/11/06 10:00:02;;;;;;;2.70;2.20;;;;;;;;;;4993334;28;20239;-78
2022/11/06 10:02:37;;;;;;;3.87;2.60;;;;;;;;;;4991421;28;20248;-78
2022/11/06 10:05:09;;;;;;;4.03;2.50;;;;;;;;;;4993125;28;20239;-79
2022/11/06 10:07:39;;;;;;;4.10;2.43;;;;;;;;;;4993193;28;20193;-78
2022/11/06 10:10:12;;;;;;;3.47;2.40;;;;;;;;;;4992567;28;20264;-78
2022/11/06 10:12:48;;;;;;;4.33;2.30;;;;;;;;;;4993684;28;20754;-78
2022/11/06 10:15:20;;;;;;;3.33;2.50;;;;;;;;;;4993936;28;20300;-78
2022/11/06 10:17:55;;;;;;;2.97;2.10;;;;;;;;;;4997329;28;20280;-77
2022/11/06 10:20:28;;;;;;;4.40;2.60;;;;;;;;;;4996593;28;20235;-77
2022/11/06 10:23:03;;;;;;;2.40;2.10;;;;;;;;;;4996825;28;20232;-78
2022/11/06 10:25:43;;;;;;;4.97;2.53;;;;;;;;;;4996992;28;20228;-78
2022/11/06 10:28:18;;;;;;;3.30;2.27;;;;;;;;;;4997215;28;20622;-78
2022/11/06 10:30:52;;;;;;;4.93;2.10;;;;;;;;;;4996834;28;20185;-78
2022/11/06 10:33:28;;;;;;;5.70;2.33;;;;;;;;;;4996909;28;20283;-78
2022/11/06 10:36:00;;;;;;;3.40;2.57;;;;;;;;;;4997032;28;20312;-79
2022/11/06 10:38:30;;;;;;;4.73;2.27;;;;;;;;;;4996703;28;20224;-78
2022/11/06 10:40:59;;;;;;;5.00;2.30;;;;;;;;;;4996515;28;20268;-78
2022/11/06 10:43:31;;;;;;;4.00;2.30;;;;;;;;;;4996629;28;20256;-78
2022/11/06 10:46:02;;;;;;;4.33;2.30;;;;;;;;;;4997068;28;20228;-78
2022/11/06 10:48:33;;;;;;;4.40;2.40;;;;;;;;;;4996693;28;20259;-77
2022/11/06 10:51:16;;;;;;;2.33;1.90;;;;;;;;;;4996839;28;20648;-78
2022/11/06 10:53:50;;;;;;;2.63;2.00;;;;;;;;;;4996639;28;20296;-78
2022/11/06 10:56:31;;;;;;;3.10;1.90;;;;;;;;;;4996280;28;20741;-77
2022/11/06 10:59:00;;;;;;;2.20;2.00;;;;;;;;;;4996728;28;20272;-78
2022/11/06 11:01:29;;;;;;;4.13;2.30;;;;;;;;;;4996623;28;20267;-78
2022/11/06 11:03:59;;;;;;;3.20;2.27;;;;;;;;;;4996355;28;20584;-78
2022/11/06 11:06:27;;;;;;;3.87;2.20;;;;;;;;;;4994529;28;20237;-78
2022/11/06 11:08:56;;;;;;;2.50;2.00;;;;;;;;;;4996512;28;20300;-78
2022/11/06 11:11:26;;;;;;;5.13;2.67;;;;;;;;;;4996474;28;20660;-78
2022/11/06 11:14:14;;;;;;;3.10;2.30;;;;;;;;;;4995943;28;20209;-77
2022/11/06 11:16:44;;;;;;;4.43;2.30;;;;;;;;;;4996044;28;20225;-78
2022/11/06 11:19:24;;;;;;;4.23;2.67;;;;;;;;;;4996277;28;20666;-77
2022/11/06 11:21:54;;;;;;;3.33;2.37;;;;;;;;;;4996504;28;20594;-75
2022/11/06 11:24:22;;;;;;;3.63;2.67;;;;;;;;;;4991362;28;20214;-76
2022/11/06 11:26:52;;;;;;;4.90;2.80;;;;;;;;;;4997017;28;20228;-76
2022/11/06 11:29:23;;;;;;;2.90;2.60;;;;;;;;;;5001664;28;20209;-75
2022/11/06 11:31:53;;;;;;;3.33;2.57;;;;;;;;;;4995446;28;20319;-76
2022/11/06 11:34:24;;;;;;;5.30;2.70;;;;;;;;;;4988592;28;20228;-76
2022/11/06 11:36:56;;;;;;;3.27;2.87;;;;;;;;;;4989664;28;20225;-75
2022/11/06 11:39:27;;;;;;;3.97;2.90;;;;;;;;;;4990569;28;20264;-76
2022/11/06 11:42:15;;;;;;;2.70;2.50;;;;;;;;;;4995160;28;20221;-76
2022/11/06 11:44:44;;;;;;;6.07;2.97;;;;;;;;;;4992989;28;20613;-76
2022/11/06 11:47:21;;;;;;;4.20;3.00;;;;;;;;;;4994791;28;20296;-76
2022/11/06 11:49:51;;;;;;;6.50;3.00;;;;;;;;;;4994979;28;20255;-76
2022/11/06 11:52:21;;;;;;;3.60;2.70;;;;;;;;;;4992695;28;20233;-76
2022/11/06 11:54:52;;;;;;;3.70;2.60;;;;;;;;;;4989694;28;20201;-76
2022/11/06 11:57:22;;;;;;;4.33;2.90;;;;;;;;;;4987040;28;20263;-75
2022/11/06 11:59:54;;;;;;;5.90;2.80;;;;;;;;;;4986597;28;20201;-75
2022/11/06 12:02:24;;;;;;;4.27;2.80;;;;;;;;;;4988723;28;20656;-77
2022/11/06 12:04:58;;;;;;;3.60;2.50;;;;;;;;;;4992787;28;20581;-75
2022/11/06 12:07:27;;;;;;;4.70;2.77;;;;;;;;;;4988023;28;20643;-77
2022/11/06 12:09:56;;;;;;;3.17;2.40;;;;;;;;;;4994063;28;20197;-76
2022/11/06 12:12:28;;;;;;;3.90;2.70;;;;;;;;;;4975007;28;20225;-78
2022/11/06 12:15:07;;;;;;;4.43;2.70;;;;;;;;;;4984376;28;20203;-76
2022/11/06 12:17:37;;;;;;;3.87;2.40;;;;;;;;;;4987775;28;20205;-79
2022/11/06 12:20:12;;;;;;;4.33;2.67;;;;;;;;;;4995408;28;20264;-78
2022/11/06 12:22:42;;;;;;;3.00;2.70;;;;;;;;;;4995305;28;20756;-78
2022/11/06 12:25:14;;;;;;;4.50;2.70;;;;;;;;;;4995226;28;20213;-78
2022/11/06 12:27:44;;;;;;;4.40;2.90;;;;;;;;;;4995223;28;20296;-79
2022/11/06 12:30:15;;;;;;;4.30;2.60;;;;;;;;;;4995251;28;20301;-78
2022/11/06 12:32:52;;;;;;;4.33;2.60;;;;;;;;;;4995254;28;20229;-78
2022/11/06 12:35:25;;;;;;;4.03;2.40;;;;;;;;;;4995175;28;20244;-78
2022/11/06 12:37:59;;;;;;;3.60;2.63;;;;;;;;;;4993942;28;20597;-78
2022/11/06 12:40:29;;;;;;;2.80;2.60;;;;;;;;;;4977396;28;20273;-77
2022/11/06 12:43:01;;;;;;;4.20;2.43;;;;;;;;;;4995529;28;20261;-76
2022/11/06 12:45:35;;;;;;;3.47;2.50;;;;;;;;;;4979716;28;20655;-77
2022/11/06 12:48:12;;;;;;;2.73;2.50;;;;;;;;;;4992766;28;20212;-75
2022/11/06 12:50:46;;;;;;;4.00;2.60;;;;;;;;;;4988549;28;20205;-76
2022/11/06 12:53:20;;;;;;;3.93;2.43;;;;;;;;;;4975769;28;20264;-76
2022/11/06 12:55:54;;;;;;;3.43;2.80;;;;;;;;;;4989846;28;22032;-76
2022/11/06 12:58:35;;;;;;;6.30;2.80;;;;;;;;;;4991492;28;20709;-76
2022/11/06 13:01:07;;;;;;;5.07;2.87;;;;;;;;;;4986680;28;20225;-76
2022/11/06 13:03:50;;;;;;;4.27;2.80;;;;;;;;;;4991806;28;20276;-76
2022/11/06 13:06:23;;;;;;;5.87;2.90;;;;;;;;;;4989519;28;20205;-75
2022/11/06 13:08:55;;;;;;;3.83;2.73;;;;;;;;;;4983684;28;20280;-76
2022/11/06 13:11:31;;;;;;;3.37;2.77;;;;;;;;;;4992100;28;20264;-76
2022/11/06 13:14:08;;;;;;;3.50;2.50;;;;;;;;;;4982221;28;20974;-75
2022/11/06 13:16:40;;;;;;;5.40;2.70;;;;;;;;;;4993148;28;20244;-76
2022/11/06 13:19:11;;;;;;;5.37;2.70;;;;;;;;;;4993489;28;20305;-76
2022/11/06 13:21:56;;;;;;;3.53;2.50;;;;;;;;;;4993641;28;20220;-76
2022/11/06 13:24:29;;;;;;;3.50;2.67;;;;;;;;;;4986829;28;20225;-76
2022/11/06 13:27:00;;;;;;;4.57;2.70;;;;;;;;;;4993245;28;20197;-76
2022/11/06 13:29:30;;;;;;;3.97;2.57;;;;;;;;;;4992986;28;20360;-76
2022/11/06 13:32:01;;;;;;;4.73;2.67;;;;;;;;;;4993254;28;20229;-77
2022/11/06 13:34:31;;;;;;;3.93;2.67;;;;;;;;;;4992041;28;20287;-76
2022/11/06 13:37:01;;;;;;;4.20;2.53;;;;;;;;;;4993256;28;20260;-76
2022/11/06 13:39:32;;;;;;;5.20;2.77;;;;;;;;;;4992778;28;20205;-76
2022/11/06 13:42:02;;;;;;;6.70;3.17;;;;;;;;;;4979901;28;20725;-76
2022/11/06 13:44:31;;;;;;;4.83;3.03;;;;;;;;;;4986177;28;20288;-76
2022/11/06 13:47:03;;;;;;;4.60;3.00;;;;;;;;;;4986126;28;20292;-75
2022/11/06 13:49:35;;;;;;;6.07;3.30;;;;;;;;;;4991800;28;20288;-76
2022/11/06 13:52:09;;;;;;;6.13;3.03;;;;;;;;;;4992907;28;20307;-75
2022/11/06 13:55:00;;;;;;;3.83;2.70;;;;;;;;;;4990769;28;20236;-76
2022/11/06 13:57:37;;;;;;;4.47;2.97;;;;;;;;;;5089846;23;20298;-78
2022/11/06 14:00:12;;;;;;;5.90;3.00;;;;;;;;;;4993762;28;20196;-78
2022/11/06 14:03:05;;;;;;;4.97;2.80;;;;;;;;;;5008690;28;20651;-78
2022/11/06 14:06:00;;;;;;;3.60;2.57;;;;;;;;;;5008820;28;20293;-78
2022/11/06 14:08:31;;;;;;;3.43;2.43;;;;;;;;;;4977699;28;20205;-76
2022/11/06 14:11:01;;;;;;;4.33;2.63;;;;;;;;;;5013602;28;20259;-76
2022/11/06 14:13:32;;;;;;;4.90;2.60;;;;;;;;;;5009012;28;20638;-77
2022/11/06 14:16:02;;;;;;;4.93;2.73;;;;;;;;;;5006024;28;20196;-76
2022/11/06 14:18:30;;;;;;;5.00;2.83;;;;;;;;;;5005549;28;20292;-76
2022/11/06 14:21:14;;;;;;;7.03;2.70;;;;;;;;;;5008512;28;20307;-76
2022/11/06 14:23:54;;;;;;;4.33;2.57;;;;;;;;;;5005743;28;20291;-77
2022/11/06 14:26:39;;;;;;;4.47;2.10;;;;;;;;;;5005523;28;20235;-75
2022/11/06 14:29:36;;;;;;;3.73;2.37;;;;;;;;;;5012343;28;20275;-76
2022/11/06 14:32:07;;;;;;;5.83;2.40;;;;;;;;;;5007039;28;20228;-76
2022/11/06 14:34:37;;;;;;;4.13;2.20;;;;;;;;;;5005694;28;20255;-76
2022/11/06 14:37:26;;;;;;;2.87;2.53;;;;;;;;;;5006716;28;20228;-75
2022/11/06 14:40:07;;;;;;;3.23;2.23;;;;;;;;;;5011023;28;20201;-76
2022/11/06 14:42:40;;;;;;;5.33;2.57;;;;;;;;;;5010613;28;20299;-76
2022/11/06 14:45:10;;;;;;;3.27;2.50;;;;;;;;;;5010567;28;20228;-76
2022/11/06 14:47:41;;;;;;;3.67;2.30;;;;;;;;;;5008568;28;20215;-75
2022/11/06 14:50:24;;;;;;;7.43;2.47;;;;;;;;;;5008391;28;20291;-75
2022/11/06 14:52:54;;;;;;;4.83;2.10;;;;;;;;;;5011650;28;20740;-75
2022/11/06 14:55:33;;;;;;;6.00;2.50;;;;;;;;;;5005536;28;20396;-75
2022/11/06 14:58:16;;;;;;;4.90;2.22;;;;;;;;;;4889231;28;10000633;-76
2022/11/06 15:00:48;;;;;;;3.20;2.03;;;;;;;;;;5010147;28;20416;-76
2022/11/06 15:03:20;;;;;;;3.77;2.23;;;;;;;;;;5008654;28;20208;-76
2022/11/06 15:05:48;;;;;;;3.07;2.30;;;;;;;;;;5004871;28;20273;-76
2022/11/06 15:08:38;;;;;;;3.33;2.00;;;;;;;;;;5010918;28;20200;-76
2022/11/06 15:11:08;;;;;;;2.43;2.23;;;;;;;;;;5011011;28;20307;-76
2022/11/06 15:13:37;;;;;;;2.97;2.00;;;;;;;;;;5008739;28;20222;-76
2022/11/06 15:16:11;;;;;;;4.10;2.20;;;;;;;;;;5002333;28;20266;-75
2022/11/06 15:18:42;;;;;;;5.57;2.07;;;;;;;;;;5014671;28;20609;-75